sensor_id;sensor_type;location;lat;lon;timestamp;P1;durP1;ratioP1;P2;durP2;ratioP2
31594;SDS011;18200;48.726;8.892;2022-08-19T00:00:38;23.77;;;17.80;;
31594;SDS011;18200;48.726;8.892;2022-08-19T00:04:39;23.08;;;17.85;;
31594;SDS011;18200;48.726;8.892;2022-08-19T00:08:40;23.05;;;17.83;;
31594;SDS011;18200;48.726;8.892;2022-08-19T00:12:40;26.92;;;19.35;;
31594;SDS011;18200;48.726;8.892;2022-08-19T00:16:41;26.38;;;19.33;;
31594;SDS011;18200;48.726;8.892;2022-08-19T00:20:44;32.22;;;20.67;;
31594;SDS011;18200;48.726;8.892;2022-08-19T00:24:44;28.35;;;19.75;;
31594;SDS011;18200;48.726;8.892;2022-08-19T00:28:45;30.30;;;19.35;;
31594;SDS011;18200;48.726;8.892;2022-08-19T00:32:46;35.13;;;21.52;;
31594;SDS011;18200;48.726;8.892;2022-08-19T00:36:46;32.72;;;20.52;;
31594;SDS011;18200;48.726;8.892;2022-08-19T00:40:48;29.20;;;19.23;;
31594;SDS011;18200;48.726;8.892;2022-08-19T00:44:50;32.90;;;20.77;;
31594;SDS011;18200;48.726;8.892;2022-08-19T00:48:50;29.83;;;19.58;;
31594;SDS011;18200;48.726;8.892;2022-08-19T00:52:51;29.88;;;20.63;;
31594;SDS011;18200;48.726;8.892;2022-08-19T00:56:52;27.73;;;20.42;;
31594;SDS011;18200;48.726;8.892;2022-08-19T01:00:53;28.50;;;21.20;;
31594;SDS011;18200;48.726;8.892;2022-08-19T01:04:53;28.38;;;21.17;;
31594;SDS011;18200;48.726;8.892;2022-08-19T01:08:54;25.45;;;19.67;;
31594;SDS011;18200;48.726;8.892;2022-08-19T01:12:55;27.98;;;19.92;;
31594;SDS011;18200;48.726;8.892;2022-08-19T01:16:58;29.60;;;21.25;;
31594;SDS011;18200;48.726;8.892;2022-08-19T01:21:01;29.73;;;20.98;;
31594;SDS011;18200;48.726;8.892;2022-08-19T01:25:06;31.55;;;22.17;;
31594;SDS011;18200;48.726;8.892;2022-08-19T01:29:07;29.52;;;21.90;;
31594;SDS011;18200;48.726;8.892;2022-08-19T01:33:08;30.58;;;21.55;;
31594;SDS011;18200;48.726;8.892;2022-08-19T01:37:09;30.20;;;21.88;;
31594;SDS011;18200;48.726;8.892;2022-08-19T01:41:11;33.80;;;22.45;;
31594;SDS011;18200;48.726;8.892;2022-08-19T01:45:12;32.72;;;23.05;;
31594;SDS011;18200;48.726;8.892;2022-08-19T01:49:13;32.60;;;22.60;;
31594;SDS011;18200;48.726;8.892;2022-08-19T01:53:13;30.13;;;22.60;;
31594;SDS011;18200;48.726;8.892;2022-08-19T01:57:14;34.65;;;23.55;;
31594;SDS011;18200;48.726;8.892;2022-08-19T02:01:15;31.50;;;22.52;;
31594;SDS011;18200;48.726;8.892;2022-08-19T02:05:15;30.40;;;21.73;;
31594;SDS011;18200;48.726;8.892;2022-08-19T02:09:17;33.83;;;22.63;;
31594;SDS011;18200;48.726;8.892;2022-08-19T02:13:18;29.10;;;21.67;;
31594;SDS011;18200;48.726;8.892;2022-08-19T02:17:19;31.40;;;22.60;;
31594;SDS011;18200;48.726;8.892;2022-08-19T02:21:20;36.47;;;24.35;;
31594;SDS011;18200;48.726;8.892;2022-08-19T02:25:22;34.53;;;23.73;;
31594;SDS011;18200;48.726;8.892;2022-08-19T02:29:22;31.85;;;23.52;;
31594;SDS011;18200;48.726;8.892;2022-08-19T02:33:22;30.27;;;23.00;;
31594;SDS011;18200;48.726;8.892;2022-08-19T02:37:23;33.95;;;23.67;;
31594;SDS011;18200;48.726;8.892;2022-08-19T02:41:42;32.47;;;22.23;;
31594;SDS011;18200;48.726;8.892;2022-08-19T02:45:42;30.70;;;22.80;;
31594;SDS011;18200;48.726;8.892;2022-08-19T02:49:43;33.17;;;24.02;;
31594;SDS011;18200;48.726;8.892;2022-08-19T02:53:43;38.20;;;25.13;;
31594;SDS011;18200;48.726;8.892;2022-08-19T02:57:44;33.95;;;23.83;;
31594;SDS011;18200;48.726;8.892;2022-08-19T03:01:45;33.13;;;24.40;;
31594;SDS011;18200;48.726;8.892;2022-08-19T03:05:45;34.63;;;25.00;;
31594;SDS011;18200;48.726;8.892;2022-08-19T03:09:46;35.53;;;25.27;;
31594;SDS011;18200;48.726;8.892;2022-08-19T03:13:47;39.35;;;26.80;;
31594;SDS011;18200;48.726;8.892;2022-08-19T03:17:51;38.10;;;26.60;;
31594;SDS011;18200;48.726;8.892;2022-08-19T03:21:51;38.40;;;26.75;;
31594;SDS011;18200;48.726;8.892;2022-08-19T03:25:52;37.97;;;27.38;;
31594;SDS011;18200;48.726;8.892;2022-08-19T03:29:53;39.33;;;26.98;;
31594;SDS011;18200;48.726;8.892;2022-08-19T03:33:54;39.28;;;28.15;;
31594;SDS011;18200;48.726;8.892;2022-08-19T03:37:54;42.65;;;29.40;;
31594;SDS011;18200;48.726;8.892;2022-08-19T03:41:56;40.47;;;28.80;;
31594;SDS011;18200;48.726;8.892;2022-08-19T03:46:02;41.08;;;29.02;;
31594;SDS011;18200;48.726;8.892;2022-08-19T03:50:04;39.63;;;28.75;;
31594;SDS011;18200;48.726;8.892;2022-08-19T03:54:06;42.20;;;30.33;;
31594;SDS011;18200;48.726;8.892;2022-08-19T03:58:07;45.53;;;29.70;;
31594;SDS011;18200;48.726;8.892;2022-08-19T04:02:09;40.97;;;29.73;;
31594;SDS011;18200;48.726;8.892;2022-08-19T04:06:19;41.80;;;30.13;;
31594;SDS011;18200;48.726;8.892;2022-08-19T04:10:21;43.45;;;29.10;;
31594;SDS011;18200;48.726;8.892;2022-08-19T04:14:24;43.92;;;29.70;;
31594;SDS011;18200;48.726;8.892;2022-08-19T04:18:29;41.85;;;30.55;;
31594;SDS011;18200;48.726;8.892;2022-08-19T04:22:30;44.80;;;31.83;;
31594;SDS011;18200;48.726;8.892;2022-08-19T04:26:31;45.55;;;30.35;;
31594;SDS011;18200;48.726;8.892;2022-08-19T04:30:38;44.08;;;30.50;;
31594;SDS011;18200;48.726;8.892;2022-08-19T04:34:39;44.00;;;29.35;;
31594;SDS011;18200;48.726;8.892;2022-08-19T04:38:40;44.67;;;30.33;;
31594;SDS011;18200;48.726;8.892;2022-08-19T04:42:40;43.85;;;30.58;;
31594;SDS011;18200;48.726;8.892;2022-08-19T04:46:41;41.50;;;30.02;;
31594;SDS011;18200;48.726;8.892;2022-08-19T04:50:42;42.70;;;30.33;;
31594;SDS011;18200;48.726;8.892;2022-08-19T04:54:43;44.90;;;31.95;;
31594;SDS011;18200;48.726;8.892;2022-08-19T04:58:44;44.92;;;31.13;;
31594;SDS011;18200;48.726;8.892;2022-08-19T05:02:44;42.25;;;30.70;;
31594;SDS011;18200;48.726;8.892;2022-08-19T05:06:46;45.72;;;31.35;;
31594;SDS011;18200;48.726;8.892;2022-08-19T05:10:48;46.97;;;31.50;;
31594;SDS011;18200;48.726;8.892;2022-08-19T05:14:49;44.25;;;31.00;;
31594;SDS011;18200;48.726;8.892;2022-08-19T05:18:51;43.67;;;30.73;;
31594;SDS011;18200;48.726;8.892;2022-08-19T05:23:11;43.15;;;30.52;;
31594;SDS011;18200;48.726;8.892;2022-08-19T05:27:14;48.67;;;31.80;;
31594;SDS011;18200;48.726;8.892;2022-08-19T05:31:15;42.88;;;30.15;;
31594;SDS011;18200;48.726;8.892;2022-08-19T05:35:15;42.33;;;30.60;;
31594;SDS011;18200;48.726;8.892;2022-08-19T05:39:19;44.83;;;30.70;;
31594;SDS011;18200;48.726;8.892;2022-08-19T05:43:20;44.95;;;29.67;;
31594;SDS011;18200;48.726;8.892;2022-08-19T05:47:20;42.25;;;29.45;;
31594;SDS011;18200;48.726;8.892;2022-08-19T05:51:21;41.85;;;29.88;;
31594;SDS011;18200;48.726;8.892;2022-08-19T05:55:22;43.65;;;30.23;;
31594;SDS011;18200;48.726;8.892;2022-08-19T05:59:23;48.00;;;31.15;;
31594;SDS011;18200;48.726;8.892;2022-08-19T06:03:24;42.97;;;29.45;;
31594;SDS011;18200;48.726;8.892;2022-08-19T06:07:24;44.55;;;30.33;;
31594;SDS011;18200;48.726;8.892;2022-08-19T06:11:41;50.08;;;32.20;;
31594;SDS011;18200;48.726;8.892;2022-08-19T06:15:49;44.75;;;31.33;;
31594;SDS011;18200;48.726;8.892;2022-08-19T06:19:50;43.30;;;29.20;;
31594;SDS011;18200;48.726;8.892;2022-08-19T06:23:51;46.33;;;31.08;;
31594;SDS011;18200;48.726;8.892;2022-08-19T06:27:51;42.08;;;29.33;;
31594;SDS011;18200;48.726;8.892;2022-08-19T06:31:53;43.30;;;30.08;;
31594;SDS011;18200;48.726;8.892;2022-08-19T06:35:56;41.25;;;28.55;;
31594;SDS011;18200;48.726;8.892;2022-08-19T06:39:56;40.75;;;29.15;;
31594;SDS011;18200;48.726;8.892;2022-08-19T06:43:57;42.92;;;28.30;;
31594;SDS011;18200;48.726;8.892;2022-08-19T06:47:57;38.90;;;27.77;;
31594;SDS011;18200;48.726;8.892;2022-08-19T06:51:58;39.72;;;27.38;;
31594;SDS011;18200;48.726;8.892;2022-08-19T06:55:59;39.13;;;28.45;;
31594;SDS011;18200;48.726;8.892;2022-08-19T07:00:03;38.60;;;26.73;;
31594;SDS011;18200;48.726;8.892;2022-08-19T07:04:06;38.47;;;26.27;;
31594;SDS011;18200;48.726;8.892;2022-08-19T07:08:08;34.83;;;25.42;;
31594;SDS011;18200;48.726;8.892;2022-08-19T07:12:10;36.60;;;26.08;;
31594;SDS011;18200;48.726;8.892;2022-08-19T07:16:13;35.72;;;26.35;;
31594;SDS011;18200;48.726;8.892;2022-08-19T07:20:16;37.58;;;25.88;;
31594;SDS011;18200;48.726;8.892;2022-08-19T07:24:16;34.88;;;25.73;;
31594;SDS011;18200;48.726;8.892;2022-08-19T07:28:17;34.60;;;25.00;;
31594;SDS011;18200;48.726;8.892;2022-08-19T07:32:18;37.95;;;26.27;;
31594;SDS011;18200;48.726;8.892;2022-08-19T07:36:19;37.38;;;25.25;;
31594;SDS011;18200;48.726;8.892;2022-08-19T07:40:22;36.42;;;25.95;;
31594;SDS011;18200;48.726;8.892;2022-08-19T07:44:23;35.95;;;25.35;;
31594;SDS011;18200;48.726;8.892;2022-08-19T07:48:24;36.10;;;24.63;;
31594;SDS011;18200;48.726;8.892;2022-08-19T07:52:26;33.67;;;24.77;;
31594;SDS011;18200;48.726;8.892;2022-08-19T07:56:26;36.67;;;25.65;;
31594;SDS011;18200;48.726;8.892;2022-08-19T08:00:27;34.85;;;25.27;;
31594;SDS011;18200;48.726;8.892;2022-08-19T08:04:28;37.53;;;25.23;;
31594;SDS011;18200;48.726;8.892;2022-08-19T08:08:47;36.72;;;25.63;;
31594;SDS011;18200;48.726;8.892;2022-08-19T08:13:06;31.40;;;23.75;;
31594;SDS011;18200;48.726;8.892;2022-08-19T08:17:07;33.15;;;24.58;;
31594;SDS011;18200;48.726;8.892;2022-08-19T08:21:08;30.30;;;22.90;;
31594;SDS011;18200;48.726;8.892;2022-08-19T08:25:10;32.00;;;22.80;;
31594;SDS011;18200;48.726;8.892;2022-08-19T08:29:14;32.78;;;22.27;;
31594;SDS011;18200;48.726;8.892;2022-08-19T08:33:19;33.78;;;23.15;;
31594;SDS011;18200;48.726;8.892;2022-08-19T08:37:21;28.63;;;22.10;;
31594;SDS011;18200;48.726;8.892;2022-08-19T08:41:24;34.65;;;22.08;;
31594;SDS011;18200;48.726;8.892;2022-08-19T08:45:47;30.13;;;21.88;;
31594;SDS011;18200;48.726;8.892;2022-08-19T08:53:59;31.30;;;21.42;;
31594;SDS011;18200;48.726;8.892;2022-08-19T08:58:03;30.33;;;20.63;;
31594;SDS011;18200;48.726;8.892;2022-08-19T09:02:07;36.50;;;22.30;;
31594;SDS011;18200;48.726;8.892;2022-08-19T09:06:14;31.40;;;21.30;;
31594;SDS011;18200;48.726;8.892;2022-08-19T09:10:29;27.55;;;21.05;;
31594;SDS011;18200;48.726;8.892;2022-08-19T09:18:51;33.70;;;24.03;;
31594;SDS011;18200;48.726;8.892;2022-08-19T09:22:53;32.78;;;22.50;;
31594;SDS011;18200;48.726;8.892;2022-08-19T09:26:53;29.27;;;22.23;;
31594;SDS011;18200;48.726;8.892;2022-08-19T09:30:54;28.10;;;22.58;;
31594;SDS011;18200;48.726;8.892;2022-08-19T09:34:54;32.17;;;22.27;;
31594;SDS011;18200;48.726;8.892;2022-08-19T09:38:55;31.33;;;21.90;;
31594;SDS011;18200;48.726;8.892;2022-08-19T09:42:56;30.30;;;21.20;;
31594;SDS011;18200;48.726;8.892;2022-08-19T09:46:57;30.55;;;20.92;;
31594;SDS011;18200;48.726;8.892;2022-08-19T09:51:04;26.02;;;20.10;;
31594;SDS011;18200;48.726;8.892;2022-08-19T09:55:09;31.70;;;20.08;;
31594;SDS011;18200;48.726;8.892;2022-08-19T09:59:11;24.73;;;20.08;;
31594;SDS011;18200;48.726;8.892;2022-08-19T10:03:12;26.17;;;18.60;;
31594;SDS011;18200;48.726;8.892;2022-08-19T10:07:12;24.15;;;18.70;;
31594;SDS011;18200;48.726;8.892;2022-08-19T10:11:13;26.00;;;18.88;;
31594;SDS011;18200;48.726;8.892;2022-08-19T10:15:16;26.70;;;18.45;;
31594;SDS011;18200;48.726;8.892;2022-08-19T10:19:21;22.60;;;16.38;;
31594;SDS011;18200;48.726;8.892;2022-08-19T10:23:21;23.65;;;16.75;;
31594;SDS011;18200;48.726;8.892;2022-08-19T10:27:21;20.27;;;15.18;;
31594;SDS011;18200;48.726;8.892;2022-08-19T10:31:29;22.90;;;15.25;;
31594;SDS011;18200;48.726;8.892;2022-08-19T10:35:30;22.77;;;14.55;;
31594;SDS011;18200;48.726;8.892;2022-08-19T10:39:33;20.85;;;14.82;;
31594;SDS011;18200;48.726;8.892;2022-08-19T10:43:34;23.90;;;16.75;;
31594;SDS011;18200;48.726;8.892;2022-08-19T10:47:38;25.40;;;16.35;;
31594;SDS011;18200;48.726;8.892;2022-08-19T10:51:39;21.35;;;15.18;;
31594;SDS011;18200;48.726;8.892;2022-08-19T10:55:59;20.60;;;15.98;;
31594;SDS011;18200;48.726;8.892;2022-08-19T11:00:18;19.40;;;13.70;;
31594;SDS011;18200;48.726;8.892;2022-08-19T11:04:23;18.10;;;12.18;;
31594;SDS011;18200;48.726;8.892;2022-08-19T11:08:23;18.55;;;14.35;;
31594;SDS011;18200;48.726;8.892;2022-08-19T11:12:24;22.77;;;16.27;;
31594;SDS011;18200;48.726;8.892;2022-08-19T11:16:25;21.83;;;13.55;;
31594;SDS011;18200;48.726;8.892;2022-08-19T11:20:26;18.42;;;13.18;;
31594;SDS011;18200;48.726;8.892;2022-08-19T11:24:27;25.88;;;13.43;;
31594;SDS011;18200;48.726;8.892;2022-08-19T11:28:28;17.15;;;12.90;;
31594;SDS011;18200;48.726;8.892;2022-08-19T11:32:29;15.52;;;12.38;;
31594;SDS011;18200;48.726;8.892;2022-08-19T11:36:29;16.77;;;11.88;;
31594;SDS011;18200;48.726;8.892;2022-08-19T11:40:32;15.60;;;12.15;;
31594;SDS011;18200;48.726;8.892;2022-08-19T11:44:33;15.15;;;12.45;;
31594;SDS011;18200;48.726;8.892;2022-08-19T11:48:33;18.17;;;11.77;;
31594;SDS011;18200;48.726;8.892;2022-08-19T11:52:34;14.82;;;11.00;;
31594;SDS011;18200;48.726;8.892;2022-08-19T11:56:36;13.52;;;10.95;;
31594;SDS011;18200;48.726;8.892;2022-08-19T12:00:37;13.57;;;9.43;;
31594;SDS011;18200;48.726;8.892;2022-08-19T12:04:39;14.95;;;10.27;;
31594;SDS011;18200;48.726;8.892;2022-08-19T12:08:40;10.95;;;9.00;;
31594;SDS011;18200;48.726;8.892;2022-08-19T12:12:41;11.40;;;8.48;;
31594;SDS011;18200;48.726;8.892;2022-08-19T12:16:43;9.82;;;8.05;;
31594;SDS011;18200;48.726;8.892;2022-08-19T12:20:45;10.32;;;7.90;;
31594;SDS011;18200;48.726;8.892;2022-08-19T12:24:47;10.93;;;7.57;;
31594;SDS011;18200;48.726;8.892;2022-08-19T12:28:50;9.95;;;7.35;;
31594;SDS011;18200;48.726;8.892;2022-08-19T12:32:50;10.95;;;8.10;;
31594;SDS011;18200;48.726;8.892;2022-08-19T12:36:51;9.20;;;7.57;;
31594;SDS011;18200;48.726;8.892;2022-08-19T12:40:51;12.90;;;7.28;;
31594;SDS011;18200;48.726;8.892;2022-08-19T12:44:52;12.02;;;7.47;;
31594;SDS011;18200;48.726;8.892;2022-08-19T12:48:52;10.07;;;7.40;;
31594;SDS011;18200;48.726;8.892;2022-08-19T12:52:54;7.20;;;5.95;;
31594;SDS011;18200;48.726;8.892;2022-08-19T12:56:54;7.85;;;6.40;;
31594;SDS011;18200;48.726;8.892;2022-08-19T13:00:55;11.32;;;7.50;;
31594;SDS011;18200;48.726;8.892;2022-08-19T13:04:55;8.73;;;6.88;;
31594;SDS011;18200;48.726;8.892;2022-08-19T13:08:56;7.85;;;7.15;;
31594;SDS011;18200;48.726;8.892;2022-08-19T13:12:57;9.07;;;7.57;;
31594;SDS011;18200;48.726;8.892;2022-08-19T13:16:59;9.73;;;8.70;;
31594;SDS011;18200;48.726;8.892;2022-08-19T13:21:03;12.48;;;8.48;;
31594;SDS011;18200;48.726;8.892;2022-08-19T13:25:05;9.23;;;8.32;;
31594;SDS011;18200;48.726;8.892;2022-08-19T13:29:06;11.07;;;9.50;;
31594;SDS011;18200;48.726;8.892;2022-08-19T13:33:25;12.45;;;9.00;;
31594;SDS011;18200;48.726;8.892;2022-08-19T13:37:26;11.10;;;10.00;;
31594;SDS011;18200;48.726;8.892;2022-08-19T13:41:43;11.45;;;9.82;;
31594;SDS011;18200;48.726;8.892;2022-08-19T13:45:48;9.88;;;8.88;;
31594;SDS011;18200;48.726;8.892;2022-08-19T13:49:50;12.13;;;10.25;;
31594;SDS011;18200;48.726;8.892;2022-08-19T13:53:50;14.52;;;9.73;;
31594;SDS011;18200;48.726;8.892;2022-08-19T13:57:51;10.70;;;9.70;;
31594;SDS011;18200;48.726;8.892;2022-08-19T14:01:52;12.50;;;9.43;;
31594;SDS011;18200;48.726;8.892;2022-08-19T14:05:58;12.45;;;9.70;;
31594;SDS011;18200;48.726;8.892;2022-08-19T14:09:58;13.43;;;9.40;;
31594;SDS011;18200;48.726;8.892;2022-08-19T14:13:59;13.30;;;9.45;;
31594;SDS011;18200;48.726;8.892;2022-08-19T14:17:59;11.38;;;9.30;;
31594;SDS011;18200;48.726;8.892;2022-08-19T14:22:00;11.07;;;9.32;;
31594;SDS011;18200;48.726;8.892;2022-08-19T14:26:08;13.38;;;9.30;;
31594;SDS011;18200;48.726;8.892;2022-08-19T14:30:11;11.45;;;9.52;;
31594;SDS011;18200;48.726;8.892;2022-08-19T14:34:14;10.35;;;9.27;;
31594;SDS011;18200;48.726;8.892;2022-08-19T14:38:15;10.25;;;9.00;;
31594;SDS011;18200;48.726;8.892;2022-08-19T14:42:20;8.90;;;7.90;;
31594;SDS011;18200;48.726;8.892;2022-08-19T14:46:21;9.35;;;8.45;;
31594;SDS011;18200;48.726;8.892;2022-08-19T14:50:24;10.07;;;8.88;;
31594;SDS011;18200;48.726;8.892;2022-08-19T14:54:24;10.25;;;8.57;;
31594;SDS011;18200;48.726;8.892;2022-08-19T14:58:25;13.13;;;8.85;;
31594;SDS011;18200;48.726;8.892;2022-08-19T15:02:25;12.52;;;8.60;;
31594;SDS011;18200;48.726;8.892;2022-08-19T15:06:26;10.80;;;9.30;;
31594;SDS011;18200;48.726;8.892;2022-08-19T15:10:27;10.57;;;8.55;;
31594;SDS011;18200;48.726;8.892;2022-08-19T15:14:29;11.95;;;8.77;;
31594;SDS011;18200;48.726;8.892;2022-08-19T15:18:33;9.75;;;8.75;;
31594;SDS011;18200;48.726;8.892;2022-08-19T15:22:35;10.20;;;8.30;;
31594;SDS011;18200;48.726;8.892;2022-08-19T15:26:35;10.10;;;8.52;;
31594;SDS011;18200;48.726;8.892;2022-08-19T15:30:36;10.18;;;8.85;;
31594;SDS011;18200;48.726;8.892;2022-08-19T15:34:37;11.23;;;8.82;;
31594;SDS011;18200;48.726;8.892;2022-08-19T15:38:38;9.98;;;8.40;;
31594;SDS011;18200;48.726;8.892;2022-08-19T15:42:40;9.10;;;7.97;;
31594;SDS011;18200;48.726;8.892;2022-08-19T15:46:43;9.48;;;7.97;;
31594;SDS011;18200;48.726;8.892;2022-08-19T15:50:44;10.98;;;8.23;;
31594;SDS011;18200;48.726;8.892;2022-08-19T15:54:45;8.65;;;7.72;;
31594;SDS011;18200;48.726;8.892;2022-08-19T15:58:45;10.55;;;7.75;;
31594;SDS011;18200;48.726;8.892;2022-08-19T16:03:04;9.40;;;7.20;;
31594;SDS011;18200;48.726;8.892;2022-08-19T16:07:23;9.20;;;7.05;;
31594;SDS011;18200;48.726;8.892;2022-08-19T16:11:24;9.32;;;7.25;;
31594;SDS011;18200;48.726;8.892;2022-08-19T16:15:27;7.55;;;6.72;;
31594;SDS011;18200;48.726;8.892;2022-08-19T16:19:29;9.20;;;6.75;;
31594;SDS011;18200;48.726;8.892;2022-08-19T16:23:31;7.97;;;7.15;;
31594;SDS011;18200;48.726;8.892;2022-08-19T16:27:32;7.18;;;6.47;;
31594;SDS011;18200;48.726;8.892;2022-08-19T16:31:32;8.25;;;6.40;;
31594;SDS011;18200;48.726;8.892;2022-08-19T16:35:34;9.32;;;6.82;;
31594;SDS011;18200;48.726;8.892;2022-08-19T16:39:35;7.28;;;6.50;;
31594;SDS011;18200;48.726;8.892;2022-08-19T16:43:35;8.00;;;6.40;;
31594;SDS011;18200;48.726;8.892;2022-08-19T16:47:38;7.97;;;7.17;;
31594;SDS011;18200;48.726;8.892;2022-08-19T16:51:40;10.77;;;6.70;;
31594;SDS011;18200;48.726;8.892;2022-08-19T16:55:41;7.07;;;6.38;;
31594;SDS011;18200;48.726;8.892;2022-08-19T16:59:42;7.97;;;6.60;;
31594;SDS011;18200;48.726;8.892;2022-08-19T17:03:43;10.65;;;7.05;;
31594;SDS011;18200;48.726;8.892;2022-08-19T17:07:44;8.98;;;6.28;;
31594;SDS011;18200;48.726;8.892;2022-08-19T17:11:44;6.40;;;5.80;;
31594;SDS011;18200;48.726;8.892;2022-08-19T17:15:45;6.60;;;5.88;;
31594;SDS011;18200;48.726;8.892;2022-08-19T17:19:45;10.30;;;6.35;;
31594;SDS011;18200;48.726;8.892;2022-08-19T17:23:46;8.98;;;6.30;;
31594;SDS011;18200;48.726;8.892;2022-08-19T17:27:47;7.68;;;6.00;;
31594;SDS011;18200;48.726;8.892;2022-08-19T17:31:48;6.57;;;5.65;;
31594;SDS011;18200;48.726;8.892;2022-08-19T17:35:48;6.63;;;5.38;;
31594;SDS011;18200;48.726;8.892;2022-08-19T17:39:49;10.57;;;6.22;;
31594;SDS011;18200;48.726;8.892;2022-08-19T17:43:49;6.43;;;5.70;;
31594;SDS011;18200;48.726;8.892;2022-08-19T17:47:50;8.45;;;7.60;;
31594;SDS011;18200;48.726;8.892;2022-08-19T17:51:50;7.40;;;5.35;;
31594;SDS011;18200;48.726;8.892;2022-08-19T17:55:51;7.85;;;5.45;;
31594;SDS011;18200;48.726;8.892;2022-08-19T17:59:51;7.03;;;5.63;;
31594;SDS011;18200;48.726;8.892;2022-08-19T18:03:52;9.02;;;6.03;;
31594;SDS011;18200;48.726;8.892;2022-08-19T18:07:53;6.63;;;5.93;;
31594;SDS011;18200;48.726;8.892;2022-08-19T18:11:54;8.32;;;6.75;;
31594;SDS011;18200;48.726;8.892;2022-08-19T18:15:56;8.70;;;6.20;;
31594;SDS011;18200;48.726;8.892;2022-08-19T18:19:57;6.10;;;5.43;;
31594;SDS011;18200;48.726;8.892;2022-08-19T18:23:58;9.55;;;7.45;;
31594;SDS011;18200;48.726;8.892;2022-08-19T18:27:58;14.35;;;9.05;;
31594;SDS011;18200;48.726;8.892;2022-08-19T18:32:00;11.02;;;9.70;;
31594;SDS011;18200;48.726;8.892;2022-08-19T18:36:00;12.25;;;10.13;;
31594;SDS011;18200;48.726;8.892;2022-08-19T18:40:03;12.88;;;9.70;;
31594;SDS011;18200;48.726;8.892;2022-08-19T18:44:23;11.07;;;9.60;;
31594;SDS011;18200;48.726;8.892;2022-08-19T18:48:42;13.13;;;9.82;;
31594;SDS011;18200;48.726;8.892;2022-08-19T18:53:01;15.05;;;10.43;;
31594;SDS011;18200;48.726;8.892;2022-08-19T18:57:02;10.93;;;9.82;;
31594;SDS011;18200;48.726;8.892;2022-08-19T19:01:05;12.55;;;9.88;;
31594;SDS011;18200;48.726;8.892;2022-08-19T19:05:11;11.63;;;9.50;;
31594;SDS011;18200;48.726;8.892;2022-08-19T19:09:15;12.10;;;9.60;;
31594;SDS011;18200;48.726;8.892;2022-08-19T19:13:18;14.00;;;9.65;;
31594;SDS011;18200;48.726;8.892;2022-08-19T19:17:19;11.95;;;9.82;;
31594;SDS011;18200;48.726;8.892;2022-08-19T19:21:25;11.05;;;8.90;;
31594;SDS011;18200;48.726;8.892;2022-08-19T19:25:26;12.95;;;9.48;;
31594;SDS011;18200;48.726;8.892;2022-08-19T19:29:27;11.88;;;9.13;;
31594;SDS011;18200;48.726;8.892;2022-08-19T19:33:27;10.45;;;8.63;;
31594;SDS011;18200;48.726;8.892;2022-08-19T19:37:28;11.45;;;8.43;;
31594;SDS011;18200;48.726;8.892;2022-08-19T19:41:28;10.43;;;8.60;;
31594;SDS011;18200;48.726;8.892;2022-08-19T19:45:28;10.32;;;8.00;;
31594;SDS011;18200;48.726;8.892;2022-08-19T19:49:29;11.10;;;7.80;;
31594;SDS011;18200;48.726;8.892;2022-08-19T19:53:31;11.68;;;8.23;;
31594;SDS011;18200;48.726;8.892;2022-08-19T19:57:32;11.85;;;8.25;;
31594;SDS011;18200;48.726;8.892;2022-08-19T20:01:33;12.82;;;8.27;;
31594;SDS011;18200;48.726;8.892;2022-08-19T20:05:34;10.23;;;8.15;;
31594;SDS011;18200;48.726;8.892;2022-08-19T20:09:34;9.27;;;7.75;;
31594;SDS011;18200;48.726;8.892;2022-08-19T20:13:34;10.30;;;6.97;;
31594;SDS011;18200;48.726;8.892;2022-08-19T20:17:35;7.68;;;6.45;;
31594;SDS011;18200;48.726;8.892;2022-08-19T20:21:41;9.43;;;6.93;;
31594;SDS011;18200;48.726;8.892;2022-08-19T20:25:43;7.15;;;6.45;;
31594;SDS011;18200;48.726;8.892;2022-08-19T20:29:44;9.98;;;5.70;;
31594;SDS011;18200;48.726;8.892;2022-08-19T20:33:45;6.80;;;6.07;;
31594;SDS011;18200;48.726;8.892;2022-08-19T20:37:46;7.47;;;5.35;;
31594;SDS011;18200;48.726;8.892;2022-08-19T20:41:47;9.55;;;5.50;;
31594;SDS011;18200;48.726;8.892;2022-08-19T20:45:47;8.85;;;5.53;;
31594;SDS011;18200;48.726;8.892;2022-08-19T20:49:48;6.40;;;5.18;;
31594;SDS011;18200;48.726;8.892;2022-08-19T20:53:48;9.57;;;4.70;;
31594;SDS011;18200;48.726;8.892;2022-08-19T20:57:48;5.85;;;4.88;;
31594;SDS011;18200;48.726;8.892;2022-08-19T21:01:49;5.28;;;4.57;;
31594;SDS011;18200;48.726;8.892;2022-08-19T21:05:53;5.50;;;4.13;;
31594;SDS011;18200;48.726;8.892;2022-08-19T21:09:54;6.72;;;3.88;;
31594;SDS011;18200;48.726;8.892;2022-08-19T21:13:55;4.50;;;3.78;;
31594;SDS011;18200;48.726;8.892;2022-08-19T21:17:56;3.70;;;3.28;;
31594;SDS011;18200;48.726;8.892;2022-08-19T21:21:56;4.35;;;3.40;;
31594;SDS011;18200;48.726;8.892;2022-08-19T21:25:57;4.28;;;3.40;;
31594;SDS011;18200;48.726;8.892;2022-08-19T21:29:59;4.00;;;2.88;;
31594;SDS011;18200;48.726;8.892;2022-08-19T21:33:59;4.38;;;2.67;;
31594;SDS011;18200;48.726;8.892;2022-08-19T21:38:00;4.22;;;2.50;;
31594;SDS011;18200;48.726;8.892;2022-08-19T21:42:00;4.45;;;2.60;;
31594;SDS011;18200;48.726;8.892;2022-08-19T21:46:01;2.20;;;2.00;;
31594;SDS011;18200;48.726;8.892;2022-08-19T21:50:03;2.75;;;2.00;;
31594;SDS011;18200;48.726;8.892;2022-08-19T21:54:04;2.28;;;1.80;;
31594;SDS011;18200;48.726;8.892;2022-08-19T21:58:04;2.15;;;1.60;;
31594;SDS011;18200;48.726;8.892;2022-08-19T22:02:05;3.33;;;1.75;;
31594;SDS011;18200;48.726;8.892;2022-08-19T22:06:05;1.60;;;1.50;;
31594;SDS011;18200;48.726;8.892;2022-08-19T22:10:06;2.15;;;1.40;;
31594;SDS011;18200;48.726;8.892;2022-08-19T22:14:07;2.10;;;1.60;;
31594;SDS011;18200;48.726;8.892;2022-08-19T22:18:07;3.47;;;1.42;;
31594;SDS011;18200;48.726;8.892;2022-08-19T22:22:07;4.85;;;1.60;;
31594;SDS011;18200;48.726;8.892;2022-08-19T22:26:08;2.40;;;1.30;;
31594;SDS011;18200;48.726;8.892;2022-08-19T22:30:10;2.05;;;1.50;;
31594;SDS011;18200;48.726;8.892;2022-08-19T22:38:14;1.95;;;1.40;;
31594;SDS011;18200;48.726;8.892;2022-08-19T22:42:18;2.30;;;1.60;;
31594;SDS011;18200;48.726;8.892;2022-08-19T22:46:19;1.52;;;1.38;;
31594;SDS011;18200;48.726;8.892;2022-08-19T22:50:20;1.55;;;1.23;;
31594;SDS011;18200;48.726;8.892;2022-08-19T22:54:20;1.75;;;1.17;;
31594;SDS011;18200;48.726;8.892;2022-08-19T22:58:20;1.50;;;1.30;;
31594;SDS011;18200;48.726;8.892;2022-08-19T23:02:22;4.07;;;1.20;;
31594;SDS011;18200;48.726;8.892;2022-08-19T23:06:25;3.35;;;1.27;;
31594;SDS011;18200;48.726;8.892;2022-08-19T23:10:26;3.60;;;1.27;;
31594;SDS011;18200;48.726;8.892;2022-08-19T23:14:27;1.58;;;1.10;;
31594;SDS011;18200;48.726;8.892;2022-08-19T23:18:28;2.15;;;1.30;;
31594;SDS011;18200;48.726;8.892;2022-08-19T23:22:28;1.50;;;1.20;;
31594;SDS011;18200;48.726;8.892;2022-08-19T23:26:29;3.00;;;1.33;;
31594;SDS011;18200;48.726;8.892;2022-08-19T23:30:30;1.90;;;1.30;;
31594;SDS011;18200;48.726;8.892;2022-08-19T23:34:32;3.10;;;1.30;;
31594;SDS011;18200;48.726;8.892;2022-08-19T23:38:32;1.20;;;1.10;;
31594;SDS011;18200;48.726;8.892;2022-08-19T23:42:33;2.92;;;1.20;;
31594;SDS011;18200;48.726;8.892;2022-08-19T23:46:34;2.92;;;1.40;;
31594;SDS011;18200;48.726;8.892;2022-08-19T23:50:37;2.10;;;1.30;;
31594;SDS011;18200;48.726;8.892;2022-08-19T23:54:40;2.15;;;1.42;;
31594;SDS011;18200;48.726;8.892;2022-08-19T23:58:40;2.35;;;1.00;;
